sensor_id;sensor_type;location;lat;lon;timestamp;P1;durP1;ratioP1;P2;durP2;ratioP2
19944;SDS011;10134;50.952;6.930;2023-04-01T00:00:20;1.00;;;0.50;;
19944;SDS011;10134;50.952;6.930;2023-04-01T00:02:48;1.58;;;0.88;;
19944;SDS011;10134;50.952;6.930;2023-04-01T00:05:15;3.17;;;0.50;;
19944;SDS011;10134;50.952;6.930;2023-04-01T00:07:43;0.85;;;0.43;;
19944;SDS011;10134;50.952;6.930;2023-04-01T00:10:11;1.20;;;0.40;;
19944;SDS011;10134;50.952;6.930;2023-04-01T00:12:39;4.07;;;0.50;;
19944;SDS011;10134;50.952;6.930;2023-04-01T00:15:08;2.28;;;0.50;;
19944;SDS011;10134;50.952;6.930;2023-04-01T00:17:37;1.92;;;0.65;;
19944;SDS011;10134;50.952;6.930;2023-04-01T00:20:05;0.50;;;0.40;;
19944;SDS011;10134;50.952;6.930;2023-04-01T00:22:34;0.30;;;0.25;;
19944;SDS011;10134;50.952;6.930;2023-04-01T00:25:02;2.03;;;0.43;;
19944;SDS011;10134;50.952;6.930;2023-04-01T00:27:31;1.00;;;0.45;;
19944;SDS011;10134;50.952;6.930;2023-04-01T00:29:58;1.80;;;0.32;;
19944;SDS011;10134;50.952;6.930;2023-04-01T00:32:26;0.73;;;0.40;;
19944;SDS011;10134;50.952;6.930;2023-04-01T00:34:53;2.38;;;0.40;;
19944;SDS011;10134;50.952;6.930;2023-04-01T00:37:20;4.10;;;0.40;;
19944;SDS011;10134;50.952;6.930;2023-04-01T00:39:48;0.70;;;0.13;;
19944;SDS011;10134;50.952;6.930;2023-04-01T00:42:15;1.15;;;0.30;;
19944;SDS011;10134;50.952;6.930;2023-04-01T00:44:44;0.30;;;0.20;;
19944;SDS011;10134;50.952;6.930;2023-04-01T00:47:12;1.27;;;0.22;;
19944;SDS011;10134;50.952;6.930;2023-04-01T00:49:40;1.48;;;0.70;;
19944;SDS011;10134;50.952;6.930;2023-04-01T00:52:13;0.43;;;0.30;;
19944;SDS011;10134;50.952;6.930;2023-04-01T00:54:44;0.65;;;0.30;;
19944;SDS011;10134;50.952;6.930;2023-04-01T00:57:24;1.67;;;0.40;;
19944;SDS011;10134;50.952;6.930;2023-04-01T00:59:58;1.05;;;0.57;;
19944;SDS011;10134;50.952;6.930;2023-04-01T01:02:26;1.23;;;0.30;;
19944;SDS011;10134;50.952;6.930;2023-04-01T01:04:53;2.08;;;0.50;;
19944;SDS011;10134;50.952;6.930;2023-04-01T01:10:10;0.73;;;0.20;;
19944;SDS011;10134;50.952;6.930;2023-04-01T01:12:48;0.70;;;0.40;;
19944;SDS011;10134;50.952;6.930;2023-04-01T01:15:39;0.50;;;0.40;;
19944;SDS011;10134;50.952;6.930;2023-04-01T01:18:19;0.45;;;0.45;;
19944;SDS011;10134;50.952;6.930;2023-04-01T01:37:32;0.35;;;0.20;;
19944;SDS011;10134;50.952;6.930;2023-04-01T01:40:05;2.35;;;0.20;;
19944;SDS011;10134;50.952;6.930;2023-04-01T01:42:35;0.55;;;0.28;;
19944;SDS011;10134;50.952;6.930;2023-04-01T01:45:05;0.15;;;0.15;;
19944;SDS011;10134;50.952;6.930;2023-04-01T01:47:35;1.08;;;0.20;;
19944;SDS011;10134;50.952;6.930;2023-04-01T01:50:05;0.60;;;0.20;;
19944;SDS011;10134;50.952;6.930;2023-04-01T01:52:34;2.38;;;0.20;;
19944;SDS011;10134;50.952;6.930;2023-04-01T01:55:02;0.80;;;0.30;;
19944;SDS011;10134;50.952;6.930;2023-04-01T01:57:39;0.52;;;0.20;;
19944;SDS011;10134;50.952;6.930;2023-04-01T02:00:14;1.70;;;0.20;;
19944;SDS011;10134;50.952;6.930;2023-04-01T02:02:44;1.15;;;0.40;;
19944;SDS011;10134;50.952;6.930;2023-04-01T02:05:15;0.75;;;0.30;;
19944;SDS011;10134;50.952;6.930;2023-04-01T02:07:48;0.45;;;0.20;;
19944;SDS011;10134;50.952;6.930;2023-04-01T02:10:22;0.65;;;0.20;;
19944;SDS011;10134;50.952;6.930;2023-04-01T02:12:54;0.35;;;0.20;;
19944;SDS011;10134;50.952;6.930;2023-04-01T02:15:28;1.88;;;0.95;;
19944;SDS011;10134;50.952;6.930;2023-04-01T02:18:00;0.40;;;0.30;;
19944;SDS011;10134;50.952;6.930;2023-04-01T02:20:28;0.63;;;0.22;;
19944;SDS011;10134;50.952;6.930;2023-04-01T02:22:57;0.50;;;0.28;;
19944;SDS011;10134;50.952;6.930;2023-04-01T02:25:27;0.38;;;0.30;;
19944;SDS011;10134;50.952;6.930;2023-04-01T02:27:57;1.40;;;0.20;;
19944;SDS011;10134;50.952;6.930;2023-04-01T02:30:27;0.20;;;0.20;;
19944;SDS011;10134;50.952;6.930;2023-04-01T02:32:56;0.98;;;0.20;;
19944;SDS011;10134;50.952;6.930;2023-04-01T02:35:25;0.90;;;0.20;;
19944;SDS011;10134;50.952;6.930;2023-04-01T02:37:53;0.30;;;0.15;;
19944;SDS011;10134;50.952;6.930;2023-04-01T02:40:21;1.55;;;0.32;;
19944;SDS011;10134;50.952;6.930;2023-04-01T02:42:49;0.35;;;0.15;;
19944;SDS011;10134;50.952;6.930;2023-04-01T02:45:17;0.75;;;0.32;;
19944;SDS011;10134;50.952;6.930;2023-04-01T02:47:45;0.32;;;0.20;;
19944;SDS011;10134;50.952;6.930;2023-04-01T02:50:12;0.75;;;0.20;;
19944;SDS011;10134;50.952;6.930;2023-04-01T02:52:39;1.08;;;0.20;;
19944;SDS011;10134;50.952;6.930;2023-04-01T02:55:07;1.02;;;0.20;;
19944;SDS011;10134;50.952;6.930;2023-04-01T02:57:34;0.38;;;0.28;;
19944;SDS011;10134;50.952;6.930;2023-04-01T03:00:03;1.15;;;0.45;;
19944;SDS011;10134;50.952;6.930;2023-04-01T03:02:30;0.10;;;0.10;;
19944;SDS011;10134;50.952;6.930;2023-04-01T03:04:58;1.17;;;0.43;;
19944;SDS011;10134;50.952;6.930;2023-04-01T03:07:25;0.68;;;0.60;;
19944;SDS011;10134;50.952;6.930;2023-04-01T03:09:52;1.38;;;0.60;;
19944;SDS011;10134;50.952;6.930;2023-04-01T03:12:20;0.40;;;0.40;;
19944;SDS011;10134;50.952;6.930;2023-04-01T03:14:50;0.25;;;0.20;;
19944;SDS011;10134;50.952;6.930;2023-04-01T03:17:17;2.10;;;0.32;;
19944;SDS011;10134;50.952;6.930;2023-04-01T03:19:45;0.20;;;0.20;;
19944;SDS011;10134;50.952;6.930;2023-04-01T03:22:13;0.30;;;0.30;;
19944;SDS011;10134;50.952;6.930;2023-04-01T03:24:40;1.20;;;0.32;;
19944;SDS011;10134;50.952;6.930;2023-04-01T03:27:07;2.28;;;0.20;;
19944;SDS011;10134;50.952;6.930;2023-04-01T03:29:34;0.10;;;0.10;;
19944;SDS011;10134;50.952;6.930;2023-04-01T03:32:02;0.10;;;0.10;;
19944;SDS011;10134;50.952;6.930;2023-04-01T03:34:30;0.30;;;0.20;;
19944;SDS011;10134;50.952;6.930;2023-04-01T03:36:58;0.32;;;0.20;;
19944;SDS011;10134;50.952;6.930;2023-04-01T03:39:26;1.48;;;0.20;;
19944;SDS011;10134;50.952;6.930;2023-04-01T03:41:54;0.40;;;0.20;;
19944;SDS011;10134;50.952;6.930;2023-04-01T03:44:22;0.63;;;0.20;;
19944;SDS011;10134;50.952;6.930;2023-04-01T03:46:52;1.25;;;0.30;;
19944;SDS011;10134;50.952;6.930;2023-04-01T03:49:19;0.52;;;0.40;;
19944;SDS011;10134;50.952;6.930;2023-04-01T03:51:47;0.25;;;0.25;;
19944;SDS011;10134;50.952;6.930;2023-04-01T03:54:14;3.42;;;0.35;;
19944;SDS011;10134;50.952;6.930;2023-04-01T03:56:43;0.95;;;0.50;;
19944;SDS011;10134;50.952;6.930;2023-04-01T03:59:10;1.08;;;0.30;;
19944;SDS011;10134;50.952;6.930;2023-04-01T04:01:38;0.30;;;0.30;;
19944;SDS011;10134;50.952;6.930;2023-04-01T04:04:06;0.80;;;0.30;;
19944;SDS011;10134;50.952;6.930;2023-04-01T04:06:33;0.20;;;0.20;;
19944;SDS011;10134;50.952;6.930;2023-04-01T04:09:01;0.52;;;0.20;;
19944;SDS011;10134;50.952;6.930;2023-04-01T04:11:30;0.75;;;0.40;;
19944;SDS011;10134;50.952;6.930;2023-04-01T04:13:59;1.33;;;0.28;;
19944;SDS011;10134;50.952;6.930;2023-04-01T04:16:27;0.20;;;0.20;;
19944;SDS011;10134;50.952;6.930;2023-04-01T04:19:01;0.17;;;0.17;;
19944;SDS011;10134;50.952;6.930;2023-04-01T04:21:28;0.32;;;0.20;;
19944;SDS011;10134;50.952;6.930;2023-04-01T04:23:56;0.32;;;0.17;;
19944;SDS011;10134;50.952;6.930;2023-04-01T04:26:25;0.20;;;0.20;;
19944;SDS011;10134;50.952;6.930;2023-04-01T04:28:58;0.20;;;0.20;;
19944;SDS011;10134;50.952;6.930;2023-04-01T04:31:25;0.30;;;0.30;;
19944;SDS011;10134;50.952;6.930;2023-04-01T04:33:55;1.15;;;0.30;;
19944;SDS011;10134;50.952;6.930;2023-04-01T04:36:23;0.52;;;0.17;;
19944;SDS011;10134;50.952;6.930;2023-04-01T04:38:51;0.20;;;0.20;;
19944;SDS011;10134;50.952;6.930;2023-04-01T04:41:19;0.20;;;0.20;;
19944;SDS011;10134;50.952;6.930;2023-04-01T04:43:54;0.38;;;0.20;;
19944;SDS011;10134;50.952;6.930;2023-04-01T04:46:24;0.20;;;0.20;;
19944;SDS011;10134;50.952;6.930;2023-04-01T04:49:02;0.20;;;0.20;;
19944;SDS011;10134;50.952;6.930;2023-04-01T04:51:29;0.22;;;0.20;;
19944;SDS011;10134;50.952;6.930;2023-04-01T04:53:56;0.28;;;0.25;;
19944;SDS011;10134;50.952;6.930;2023-04-01T04:56:36;0.38;;;0.30;;
19944;SDS011;10134;50.952;6.930;2023-04-01T04:59:05;0.95;;;0.30;;
19944;SDS011;10134;50.952;6.930;2023-04-01T05:01:42;0.20;;;0.20;;
19944;SDS011;10134;50.952;6.930;2023-04-01T05:04:10;0.40;;;0.20;;
19944;SDS011;10134;50.952;6.930;2023-04-01T05:06:37;0.70;;;0.25;;
19944;SDS011;10134;50.952;6.930;2023-04-01T05:09:04;0.20;;;0.20;;
19944;SDS011;10134;50.952;6.930;2023-04-01T05:11:32;0.45;;;0.20;;
19944;SDS011;10134;50.952;6.930;2023-04-01T05:13:59;0.73;;;0.40;;
19944;SDS011;10134;50.952;6.930;2023-04-01T05:16:27;0.45;;;0.30;;
19944;SDS011;10134;50.952;6.930;2023-04-01T05:18:54;0.63;;;0.28;;
19944;SDS011;10134;50.952;6.930;2023-04-01T05:21:22;0.50;;;0.28;;
19944;SDS011;10134;50.952;6.930;2023-04-01T05:23:50;0.50;;;0.30;;
19944;SDS011;10134;50.952;6.930;2023-04-01T05:26:17;1.65;;;0.40;;
19944;SDS011;10134;50.952;6.930;2023-04-01T05:28:44;0.73;;;0.30;;
19944;SDS011;10134;50.952;6.930;2023-04-01T05:31:12;0.98;;;0.50;;
19944;SDS011;10134;50.952;6.930;2023-04-01T05:33:42;0.85;;;0.50;;
19944;SDS011;10134;50.952;6.930;2023-04-01T05:36:14;1.67;;;0.32;;
19944;SDS011;10134;50.952;6.930;2023-04-01T05:38:42;1.48;;;0.40;;
19944;SDS011;10134;50.952;6.930;2023-04-01T05:41:12;0.90;;;0.40;;
19944;SDS011;10134;50.952;6.930;2023-04-01T05:43:44;0.95;;;0.50;;
19944;SDS011;10134;50.952;6.930;2023-04-01T05:46:43;0.30;;;0.28;;
19944;SDS011;10134;50.952;6.930;2023-04-01T05:49:18;1.33;;;0.45;;
19944;SDS011;10134;50.952;6.930;2023-04-01T05:51:46;1.58;;;0.45;;
19944;SDS011;10134;50.952;6.930;2023-04-01T05:54:14;2.05;;;0.35;;
19944;SDS011;10134;50.952;6.930;2023-04-01T05:56:43;0.90;;;0.60;;
19944;SDS011;10134;50.952;6.930;2023-04-01T05:59:13;0.75;;;0.60;;
19944;SDS011;10134;50.952;6.930;2023-04-01T06:01:41;0.90;;;0.68;;
19944;SDS011;10134;50.952;6.930;2023-04-01T06:04:15;2.22;;;0.93;;
19944;SDS011;10134;50.952;6.930;2023-04-01T06:06:45;1.65;;;0.77;;
19944;SDS011;10134;50.952;6.930;2023-04-01T06:09:16;1.17;;;0.50;;
19944;SDS011;10134;50.952;6.930;2023-04-01T06:15:17;1.52;;;0.80;;
19944;SDS011;10134;50.952;6.930;2023-04-01T06:20:34;0.43;;;0.40;;
19944;SDS011;10134;50.952;6.930;2023-04-01T06:26:39;0.95;;;0.68;;
19944;SDS011;10134;50.952;6.930;2023-04-01T06:35:01;3.17;;;0.77;;
19944;SDS011;10134;50.952;6.930;2023-04-01T06:37:52;0.43;;;0.40;;
19944;SDS011;10134;50.952;6.930;2023-04-01T06:46:47;1.80;;;0.45;;
19944;SDS011;10134;50.952;6.930;2023-04-01T06:49:45;3.83;;;1.05;;
19944;SDS011;10134;50.952;6.930;2023-04-01T06:52:55;3.00;;;1.05;;
19944;SDS011;10134;50.952;6.930;2023-04-01T06:55:59;2.67;;;0.77;;
19944;SDS011;10134;50.952;6.930;2023-04-01T07:04:18;0.60;;;0.60;;
19944;SDS011;10134;50.952;6.930;2023-04-01T07:07:13;1.17;;;0.80;;
19944;SDS011;10134;50.952;6.930;2023-04-01T07:10:02;1.20;;;0.90;;
19944;SDS011;10134;50.952;6.930;2023-04-01T07:12:56;1.02;;;0.75;;
19944;SDS011;10134;50.952;6.930;2023-04-01T07:15:34;4.32;;;1.40;;
19944;SDS011;10134;50.952;6.930;2023-04-01T07:18:30;4.72;;;1.20;;
19944;SDS011;10134;50.952;6.930;2023-04-01T07:21:03;1.45;;;1.08;;
19944;SDS011;10134;50.952;6.930;2023-04-01T07:23:38;7.00;;;1.70;;
19944;SDS011;10134;50.952;6.930;2023-04-01T07:26:32;2.80;;;1.10;;
19944;SDS011;10134;50.952;6.930;2023-04-01T07:29:09;1.45;;;0.88;;
19944;SDS011;10134;50.952;6.930;2023-04-01T07:34:19;1.23;;;0.93;;
19944;SDS011;10134;50.952;6.930;2023-04-01T07:48:00;4.10;;;1.10;;
19944;SDS011;10134;50.952;6.930;2023-04-01T07:53:27;1.85;;;1.25;;
19944;SDS011;10134;50.952;6.930;2023-04-01T07:56:10;1.58;;;1.08;;
19944;SDS011;10134;50.952;6.930;2023-04-01T07:58:49;0.73;;;0.70;;
19944;SDS011;10134;50.952;6.930;2023-04-01T08:02:01;0.68;;;0.68;;
19944;SDS011;10134;50.952;6.930;2023-04-01T08:04:46;0.80;;;0.80;;
19944;SDS011;10134;50.952;6.930;2023-04-01T08:07:35;1.95;;;1.13;;
19944;SDS011;10134;50.952;6.930;2023-04-01T08:13:34;1.70;;;0.80;;
19944;SDS011;10134;50.952;6.930;2023-04-01T08:22:23;1.45;;;0.80;;
19944;SDS011;10134;50.952;6.930;2023-04-01T08:24:58;1.77;;;0.70;;
19944;SDS011;10134;50.952;6.930;2023-04-01T08:32:56;5.70;;;2.92;;
19944;SDS011;10134;50.952;6.930;2023-04-01T08:35:29;0.80;;;0.70;;
19944;SDS011;10134;50.952;6.930;2023-04-01T08:38:18;1.52;;;0.80;;
19944;SDS011;10134;50.952;6.930;2023-04-01T08:41:21;2.88;;;0.85;;
19944;SDS011;10134;50.952;6.930;2023-04-01T08:56:23;2.22;;;0.85;;
19944;SDS011;10134;50.952;6.930;2023-04-01T08:59:03;0.45;;;0.40;;
19944;SDS011;10134;50.952;6.930;2023-04-01T09:16:02;1.30;;;0.80;;
19944;SDS011;10134;50.952;6.930;2023-04-01T09:44:36;1.08;;;0.88;;
19944;SDS011;10134;50.952;6.930;2023-04-01T09:50:17;1.35;;;0.88;;
19944;SDS011;10134;50.952;6.930;2023-04-01T09:53:17;1.45;;;0.90;;
19944;SDS011;10134;50.952;6.930;2023-04-01T09:58:44;1.48;;;0.80;;
19944;SDS011;10134;50.952;6.930;2023-04-01T10:07:56;1.05;;;0.80;;
19944;SDS011;10134;50.952;6.930;2023-04-01T10:13:49;2.95;;;1.33;;
19944;SDS011;10134;50.952;6.930;2023-04-01T10:22:24;1.27;;;1.00;;
19944;SDS011;10134;50.952;6.930;2023-04-01T10:28:10;1.60;;;0.98;;
19944;SDS011;10134;50.952;6.930;2023-04-01T10:40:12;1.35;;;1.15;;
19944;SDS011;10134;50.952;6.930;2023-04-01T10:43:19;2.00;;;1.48;;
19944;SDS011;10134;50.952;6.930;2023-04-01T10:49:15;1.55;;;1.35;;
19944;SDS011;10134;50.952;6.930;2023-04-01T10:52:07;4.05;;;1.77;;
19944;SDS011;10134;50.952;6.930;2023-04-01T11:01:41;1.10;;;0.93;;
19944;SDS011;10134;50.952;6.930;2023-04-01T11:45:10;4.68;;;3.15;;
19944;SDS011;10134;50.952;6.930;2023-04-01T11:51:16;1.90;;;1.52;;
19944;SDS011;10134;50.952;6.930;2023-04-01T11:54:14;3.92;;;1.80;;
19944;SDS011;10134;50.952;6.930;2023-04-01T11:57:01;4.63;;;2.30;;
19944;SDS011;10134;50.952;6.930;2023-04-01T12:02:34;29.67;;;18.10;;
19944;SDS011;10134;50.952;6.930;2023-04-01T12:13:49;0.95;;;0.90;;
19944;SDS011;10134;50.952;6.930;2023-04-01T12:16:39;1.58;;;1.40;;
19944;SDS011;10134;50.952;6.930;2023-04-01T12:22:12;0.98;;;0.90;;
19944;SDS011;10134;50.952;6.930;2023-04-01T12:25:18;1.17;;;1.08;;
19944;SDS011;10134;50.952;6.930;2023-04-01T12:30:55;1.27;;;1.17;;
19944;SDS011;10134;50.952;6.930;2023-04-01T12:37:02;0.98;;;0.98;;
19944;SDS011;10134;50.952;6.930;2023-04-01T13:08:22;1.55;;;1.38;;
19944;SDS011;10134;50.952;6.930;2023-04-01T13:11:13;3.33;;;1.75;;
19944;SDS011;10134;50.952;6.930;2023-04-01T13:19:38;1.75;;;1.20;;
19944;SDS011;10134;50.952;6.930;2023-04-01T13:22:55;1.73;;;1.55;;
19944;SDS011;10134;50.952;6.930;2023-04-01T13:25:34;2.00;;;1.20;;
19944;SDS011;10134;50.952;6.930;2023-04-01T13:28:40;1.42;;;1.30;;
19944;SDS011;10134;50.952;6.930;2023-04-01T13:31:46;2.35;;;1.38;;
19944;SDS011;10134;50.952;6.930;2023-04-01T13:40:34;2.42;;;1.33;;
19944;SDS011;10134;50.952;6.930;2023-04-01T13:46:34;1.52;;;1.38;;
19944;SDS011;10134;50.952;6.930;2023-04-01T13:49:39;2.10;;;1.73;;
19944;SDS011;10134;50.952;6.930;2023-04-01T13:52:42;1.50;;;1.38;;
19944;SDS011;10134;50.952;6.930;2023-04-01T13:55:39;2.00;;;1.80;;
19944;SDS011;10134;50.952;6.930;2023-04-01T14:01:15;2.55;;;1.80;;
19944;SDS011;10134;50.952;6.930;2023-04-01T14:09:24;2.65;;;1.70;;
19944;SDS011;10134;50.952;6.930;2023-04-01T14:12:09;2.47;;;1.83;;
19944;SDS011;10134;50.952;6.930;2023-04-01T14:21:07;3.00;;;1.90;;
19944;SDS011;10134;50.952;6.930;2023-04-01T14:23:45;1.73;;;1.60;;
19944;SDS011;10134;50.952;6.930;2023-04-01T14:29:38;2.40;;;1.85;;
19944;SDS011;10134;50.952;6.930;2023-04-01T14:35:13;2.67;;;2.33;;
19944;SDS011;10134;50.952;6.930;2023-04-01T14:38:04;2.75;;;1.98;;
19944;SDS011;10134;50.952;6.930;2023-04-01T14:43:38;2.85;;;1.80;;
19944;SDS011;10134;50.952;6.930;2023-04-01T14:49:30;3.40;;;2.28;;
19944;SDS011;10134;50.952;6.930;2023-04-01T14:52:09;2.38;;;1.92;;
19944;SDS011;10134;50.952;6.930;2023-04-01T14:54:41;1.85;;;1.65;;
19944;SDS011;10134;50.952;6.930;2023-04-01T15:15:46;2.92;;;2.03;;
19944;SDS011;10134;50.952;6.930;2023-04-01T15:27:22;3.60;;;2.30;;
19944;SDS011;10134;50.952;6.930;2023-04-01T15:29:33;3.25;;;2.22;;
19944;SDS011;10134;50.952;6.930;2023-04-01T15:32:17;2.88;;;2.20;;
19944;SDS011;10134;50.952;6.930;2023-04-01T15:46:15;3.10;;;2.42;;
19944;SDS011;10134;50.952;6.930;2023-04-01T15:49:12;3.42;;;2.50;;
19944;SDS011;10134;50.952;6.930;2023-04-01T15:52:02;2.97;;;2.55;;
19944;SDS011;10134;50.952;6.930;2023-04-01T16:06:47;3.70;;;2.35;;
19944;SDS011;10134;50.952;6.930;2023-04-01T16:09:37;3.53;;;2.42;;
19944;SDS011;10134;50.952;6.930;2023-04-01T16:15:21;2.85;;;2.55;;
19944;SDS011;10134;50.952;6.930;2023-04-01T16:21:00;3.20;;;2.10;;
19944;SDS011;10134;50.952;6.930;2023-04-01T16:26:50;3.08;;;2.40;;
19944;SDS011;10134;50.952;6.930;2023-04-01T16:29:32;2.63;;;2.38;;
19944;SDS011;10134;50.952;6.930;2023-04-01T16:35:21;6.07;;;3.38;;
19944;SDS011;10134;50.952;6.930;2023-04-01T16:38:39;6.50;;;3.50;;
19944;SDS011;10134;50.952;6.930;2023-04-01T16:41:17;12.45;;;5.55;;
19944;SDS011;10134;50.952;6.930;2023-04-01T16:44:13;4.43;;;2.60;;
19944;SDS011;10134;50.952;6.930;2023-04-01T16:46:48;4.00;;;2.58;;
19944;SDS011;10134;50.952;6.930;2023-04-01T16:49:29;2.83;;;2.28;;
19944;SDS011;10134;50.952;6.930;2023-04-01T17:00:29;3.42;;;2.38;;
19944;SDS011;10134;50.952;6.930;2023-04-01T17:05:48;3.85;;;2.58;;
19944;SDS011;10134;50.952;6.930;2023-04-01T17:30:58;6.93;;;2.30;;
19944;SDS011;10134;50.952;6.930;2023-04-01T17:49:54;4.10;;;2.38;;
19944;SDS011;10134;50.952;6.930;2023-04-01T17:52:33;4.40;;;2.60;;
19944;SDS011;10134;50.952;6.930;2023-04-01T17:55:32;3.85;;;2.70;;
19944;SDS011;10134;50.952;6.930;2023-04-01T17:58:22;4.43;;;2.70;;
19944;SDS011;10134;50.952;6.930;2023-04-01T18:01:03;2.63;;;2.42;;
19944;SDS011;10134;50.952;6.930;2023-04-01T18:06:51;4.85;;;3.78;;
19944;SDS011;10134;50.952;6.930;2023-04-01T18:12:40;6.75;;;4.30;;
19944;SDS011;10134;50.952;6.930;2023-04-01T18:27:00;4.93;;;3.83;;
19944;SDS011;10134;50.952;6.930;2023-04-01T18:29:51;5.03;;;4.22;;
19944;SDS011;10134;50.952;6.930;2023-04-01T18:32:31;8.82;;;5.65;;
19944;SDS011;10134;50.952;6.930;2023-04-01T18:35:17;10.38;;;5.95;;
19944;SDS011;10134;50.952;6.930;2023-04-01T18:38:11;9.52;;;5.68;;
19944;SDS011;10134;50.952;6.930;2023-04-01T18:43:22;7.43;;;5.20;;
19944;SDS011;10134;50.952;6.930;2023-04-01T18:46:19;9.40;;;5.65;;
19944;SDS011;10134;50.952;6.930;2023-04-01T18:48:52;8.80;;;6.00;;
19944;SDS011;10134;50.952;6.930;2023-04-01T18:51:37;10.18;;;5.82;;
19944;SDS011;10134;50.952;6.930;2023-04-01T18:54:13;8.43;;;4.20;;
19944;SDS011;10134;50.952;6.930;2023-04-01T18:57:10;6.13;;;3.72;;
19944;SDS011;10134;50.952;6.930;2023-04-01T18:59:46;5.75;;;3.63;;
19944;SDS011;10134;50.952;6.930;2023-04-01T19:02:35;5.38;;;4.00;;
19944;SDS011;10134;50.952;6.930;2023-04-01T19:05:22;11.52;;;5.43;;
19944;SDS011;10134;50.952;6.930;2023-04-01T19:16:15;8.88;;;6.35;;
19944;SDS011;10134;50.952;6.930;2023-04-01T19:35:20;6.03;;;3.80;;
19944;SDS011;10134;50.952;6.930;2023-04-01T19:37:51;6.28;;;3.80;;
19944;SDS011;10134;50.952;6.930;2023-04-01T19:45:47;5.13;;;3.38;;
19944;SDS011;10134;50.952;6.930;2023-04-01T20:00:15;9.05;;;4.97;;
19944;SDS011;10134;50.952;6.930;2023-04-01T20:05:48;8.20;;;5.10;;
19944;SDS011;10134;50.952;6.930;2023-04-01T20:19:34;7.13;;;5.03;;
19944;SDS011;10134;50.952;6.930;2023-04-01T20:22:22;6.65;;;5.35;;
19944;SDS011;10134;50.952;6.930;2023-04-01T20:25:16;6.15;;;4.28;;
19944;SDS011;10134;50.952;6.930;2023-04-01T20:27:54;5.47;;;4.55;;
19944;SDS011;10134;50.952;6.930;2023-04-01T20:33:32;5.78;;;4.30;;
19944;SDS011;10134;50.952;6.930;2023-04-01T20:36:16;6.07;;;4.03;;
19944;SDS011;10134;50.952;6.930;2023-04-01T20:44:40;5.22;;;4.15;;
19944;SDS011;10134;50.952;6.930;2023-04-01T20:51:05;10.80;;;4.55;;
19944;SDS011;10134;50.952;6.930;2023-04-01T21:02:24;5.80;;;4.40;;
19944;SDS011;10134;50.952;6.930;2023-04-01T21:13:41;7.80;;;5.20;;
19944;SDS011;10134;50.952;6.930;2023-04-01T21:27:41;5.57;;;4.40;;
19944;SDS011;10134;50.952;6.930;2023-04-01T21:36:23;4.75;;;2.72;;
19944;SDS011;10134;50.952;6.930;2023-04-01T21:41:58;6.53;;;2.53;;
19944;SDS011;10134;50.952;6.930;2023-04-01T21:44:40;2.80;;;2.45;;
19944;SDS011;10134;50.952;6.930;2023-04-01T21:47:33;3.20;;;2.38;;
19944;SDS011;10134;50.952;6.930;2023-04-01T21:50:43;4.97;;;2.70;;
19944;SDS011;10134;50.952;6.930;2023-04-01T21:59:52;2.70;;;2.22;;
19944;SDS011;10134;50.952;6.930;2023-04-01T22:05:20;5.07;;;2.80;;
19944;SDS011;10134;50.952;6.930;2023-04-01T22:08:08;3.40;;;2.75;;
19944;SDS011;10134;50.952;6.930;2023-04-01T22:11:15;2.95;;;2.15;;
19944;SDS011;10134;50.952;6.930;2023-04-01T22:13:50;3.72;;;2.97;;
19944;SDS011;10134;50.952;6.930;2023-04-01T22:16:37;3.88;;;2.70;;
19944;SDS011;10134;50.952;6.930;2023-04-01T22:19:29;3.90;;;2.55;;
19944;SDS011;10134;50.952;6.930;2023-04-01T22:25:16;5.22;;;3.03;;
19944;SDS011;10134;50.952;6.930;2023-04-01T22:27:54;3.05;;;2.50;;
19944;SDS011;10134;50.952;6.930;2023-04-01T22:30:31;4.10;;;3.15;;
19944;SDS011;10134;50.952;6.930;2023-04-01T22:33:11;4.07;;;2.85;;
19944;SDS011;10134;50.952;6.930;2023-04-01T22:35:59;3.83;;;3.13;;
19944;SDS011;10134;50.952;6.930;2023-04-01T22:38:45;3.38;;;2.47;;
19944;SDS011;10134;50.952;6.930;2023-04-01T22:41:33;3.33;;;2.67;;
19944;SDS011;10134;50.952;6.930;2023-04-01T22:47:04;4.03;;;2.97;;
19944;SDS011;10134;50.952;6.930;2023-04-01T22:50:09;4.30;;;3.10;;
19944;SDS011;10134;50.952;6.930;2023-04-01T22:52:54;4.65;;;3.55;;
19944;SDS011;10134;50.952;6.930;2023-04-01T22:55:33;4.20;;;3.60;;
19944;SDS011;10134;50.952;6.930;2023-04-01T22:58:24;5.03;;;3.83;;
19944;SDS011;10134;50.952;6.930;2023-04-01T23:01:20;4.85;;;3.40;;
19944;SDS011;10134;50.952;6.930;2023-04-01T23:03:52;5.28;;;3.35;;
19944;SDS011;10134;50.952;6.930;2023-04-01T23:06:26;5.25;;;3.75;;
19944;SDS011;10134;50.952;6.930;2023-04-01T23:19:23;7.50;;;4.88;;
19944;SDS011;10134;50.952;6.930;2023-04-01T23:27:50;6.65;;;4.97;;
19944;SDS011;10134;50.952;6.930;2023-04-01T23:35:49;7.43;;;5.30;;
19944;SDS011;10134;50.952;6.930;2023-04-01T23:38:20;8.18;;;5.32;;
19944;SDS011;10134;50.952;6.930;2023-04-01T23:40:53;7.70;;;5.50;;
19944;SDS011;10134;50.952;6.930;2023-04-01T23:43:23;11.00;;;6.63;;
19944;SDS011;10134;50.952;6.930;2023-04-01T23:45:55;7.68;;;5.95;;
19944;SDS011;10134;50.952;6.930;2023-04-01T23:48:26;8.65;;;5.75;;
19944;SDS011;10134;50.952;6.930;2023-04-01T23:50:57;7.70;;;5.90;;
19944;SDS011;10134;50.952;6.930;2023-04-01T23:53:28;8.80;;;5.90;;
19944;SDS011;10134;50.952;6.930;2023-04-01T23:55:57;10.00;;;6.00;;
19944;SDS011;10134;50.952;6.930;2023-04-01T23:58:26;10.82;;;6.18;;
